sensor_id;sensor_type;location;lat;lon;timestamp;pressure;altitude;pressure_sealevel;temperature;humidity
56070;BME280;41944;52.078;-0.058;2023-02-12T00:01:03;103523.97;;;8.43;89.22
56070;BME280;41944;52.078;-0.058;2023-02-12T00:03:34;103526.30;;;8.37;89.33
56070;BME280;41944;52.078;-0.058;2023-02-12T00:06:01;103525.28;;;8.39;89.67
56070;BME280;41944;52.078;-0.058;2023-02-12T00:08:29;103528.52;;;8.39;89.83
56070;BME280;41944;52.078;-0.058;2023-02-12T00:10:56;103528.30;;;8.43;89.84
56070;BME280;41944;52.078;-0.058;2023-02-12T00:13:23;103528.83;;;8.47;89.32
56070;BME280;41944;52.078;-0.058;2023-02-12T00:15:50;103527.26;;;8.63;88.41
56070;BME280;41944;52.078;-0.058;2023-02-12T00:18:17;103526.52;;;8.51;88.66
56070;BME280;41944;52.078;-0.058;2023-02-12T00:20:44;103530.49;;;8.46;89.20
56070;BME280;41944;52.078;-0.058;2023-02-12T00:23:11;103531.22;;;8.56;88.74
56070;BME280;41944;52.078;-0.058;2023-02-12T00:25:41;103521.12;;;8.46;89.26
56070;BME280;41944;52.078;-0.058;2023-02-12T00:28:08;103515.90;;;8.70;87.93
56070;BME280;41944;52.078;-0.058;2023-02-12T00:30:35;103518.56;;;8.72;87.46
56070;BME280;41944;52.078;-0.058;2023-02-12T00:33:02;103524.47;;;8.59;88.32
56070;BME280;41944;52.078;-0.058;2023-02-12T00:35:29;103528.40;;;8.70;87.65
56070;BME280;41944;52.078;-0.058;2023-02-12T00:37:57;103522.93;;;8.73;86.96
56070;BME280;41944;52.078;-0.058;2023-02-12T00:40:24;103519.25;;;8.67;87.16
56070;BME280;41944;52.078;-0.058;2023-02-12T00:42:51;103522.92;;;8.46;88.19
56070;BME280;41944;52.078;-0.058;2023-02-12T00:45:19;103526.25;;;8.44;88.62
56070;BME280;41944;52.078;-0.058;2023-02-12T00:47:46;103525.00;;;8.32;89.31
56070;BME280;41944;52.078;-0.058;2023-02-12T00:50:14;103525.40;;;8.24;90.10
56070;BME280;41944;52.078;-0.058;2023-02-12T00:52:40;103523.34;;;8.26;90.26
56070;BME280;41944;52.078;-0.058;2023-02-12T00:55:07;103525.19;;;8.23;90.57
56070;BME280;41944;52.078;-0.058;2023-02-12T00:57:34;103527.50;;;8.30;90.08
56070;BME280;41944;52.078;-0.058;2023-02-12T01:00:02;103529.68;;;8.19;90.71
56070;BME280;41944;52.078;-0.058;2023-02-12T01:02:30;103525.36;;;8.19;90.70
56070;BME280;41944;52.078;-0.058;2023-02-12T01:04:56;103530.28;;;8.16;91.09
56070;BME280;41944;52.078;-0.058;2023-02-12T01:07:24;103531.84;;;8.22;90.93
56070;BME280;41944;52.078;-0.058;2023-02-12T01:09:51;103525.76;;;8.18;91.09
56070;BME280;41944;52.078;-0.058;2023-02-12T01:12:18;103520.09;;;8.20;90.85
56070;BME280;41944;52.078;-0.058;2023-02-12T01:14:46;103525.02;;;8.12;91.24
56070;BME280;41944;52.078;-0.058;2023-02-12T01:17:13;103525.39;;;8.21;91.13
56070;BME280;41944;52.078;-0.058;2023-02-12T01:19:40;103524.63;;;8.17;90.86
56070;BME280;41944;52.078;-0.058;2023-02-12T01:22:07;103520.80;;;8.12;91.47
56070;BME280;41944;52.078;-0.058;2023-02-12T01:24:35;103518.51;;;8.07;92.08
56070;BME280;41944;52.078;-0.058;2023-02-12T01:27:02;103525.58;;;8.07;92.20
56070;BME280;41944;52.078;-0.058;2023-02-12T01:29:29;103527.40;;;8.06;92.32
56070;BME280;41944;52.078;-0.058;2023-02-12T01:31:56;103521.45;;;8.04;92.36
56070;BME280;41944;52.078;-0.058;2023-02-12T01:34:23;103522.71;;;8.01;92.57
56070;BME280;41944;52.078;-0.058;2023-02-12T01:36:50;103518.31;;;8.02;92.79
56070;BME280;41944;52.078;-0.058;2023-02-12T01:39:18;103521.03;;;7.99;93.05
56070;BME280;41944;52.078;-0.058;2023-02-12T01:41:45;103520.99;;;7.98;93.41
56070;BME280;41944;52.078;-0.058;2023-02-12T01:44:16;103522.04;;;7.98;93.11
56070;BME280;41944;52.078;-0.058;2023-02-12T01:46:44;103521.33;;;7.97;92.96
56070;BME280;41944;52.078;-0.058;2023-02-12T01:49:17;103525.23;;;7.97;92.99
56070;BME280;41944;52.078;-0.058;2023-02-12T01:51:48;103526.09;;;7.98;93.17
56070;BME280;41944;52.078;-0.058;2023-02-12T01:54:18;103529.57;;;7.96;93.41
56070;BME280;41944;52.078;-0.058;2023-02-12T01:56:47;103529.97;;;7.95;93.52
56070;BME280;41944;52.078;-0.058;2023-02-12T01:59:15;103529.75;;;7.95;93.71
56070;BME280;41944;52.078;-0.058;2023-02-12T02:01:43;103532.02;;;7.93;93.88
56070;BME280;41944;52.078;-0.058;2023-02-12T02:04:12;103537.13;;;7.91;93.99
56070;BME280;41944;52.078;-0.058;2023-02-12T02:06:46;103534.95;;;7.99;93.65
56070;BME280;41944;52.078;-0.058;2023-02-12T02:09:15;103533.92;;;8.03;93.16
56070;BME280;41944;52.078;-0.058;2023-02-12T02:11:43;103534.13;;;7.95;93.66
56070;BME280;41944;52.078;-0.058;2023-02-12T02:14:10;103534.25;;;7.90;93.97
56070;BME280;41944;52.078;-0.058;2023-02-12T02:16:42;103535.08;;;7.90;93.95
56070;BME280;41944;52.078;-0.058;2023-02-12T02:19:18;103532.83;;;7.90;94.08
56070;BME280;41944;52.078;-0.058;2023-02-12T02:22:05;103532.20;;;7.83;94.67
56070;BME280;41944;52.078;-0.058;2023-02-12T02:27:10;103530.31;;;7.81;95.04
56070;BME280;41944;52.078;-0.058;2023-02-12T02:29:50;103528.92;;;7.87;94.66
56070;BME280;41944;52.078;-0.058;2023-02-12T02:32:25;103522.37;;;7.97;94.51
56070;BME280;41944;52.078;-0.058;2023-02-12T02:34:57;103519.74;;;7.86;94.53
56070;BME280;41944;52.078;-0.058;2023-02-12T02:37:30;103525.45;;;7.80;94.99
56070;BME280;41944;52.078;-0.058;2023-02-12T02:40:02;103528.80;;;7.79;95.14
56070;BME280;41944;52.078;-0.058;2023-02-12T02:42:38;103529.02;;;7.88;94.93
56070;BME280;41944;52.078;-0.058;2023-02-12T02:45:11;103522.46;;;7.82;94.74
56070;BME280;41944;52.078;-0.058;2023-02-12T02:47:42;103521.20;;;7.79;94.96
56070;BME280;41944;52.078;-0.058;2023-02-12T02:50:13;103521.51;;;7.80;94.98
56070;BME280;41944;52.078;-0.058;2023-02-12T02:52:47;103521.35;;;7.88;94.73
56070;BME280;41944;52.078;-0.058;2023-02-12T02:55:18;103518.84;;;7.87;94.45
56070;BME280;41944;52.078;-0.058;2023-02-12T02:57:49;103520.27;;;7.83;94.60
56070;BME280;41944;52.078;-0.058;2023-02-12T03:00:22;103520.46;;;7.84;94.44
56070;BME280;41944;52.078;-0.058;2023-02-12T03:02:54;103520.83;;;7.77;95.12
56070;BME280;41944;52.078;-0.058;2023-02-12T03:05:26;103522.59;;;7.76;95.62
56070;BME280;41944;52.078;-0.058;2023-02-12T03:07:59;103523.60;;;7.79;95.61
56070;BME280;41944;52.078;-0.058;2023-02-12T03:10:33;103519.87;;;7.71;95.92
56070;BME280;41944;52.078;-0.058;2023-02-12T03:13:03;103520.20;;;7.71;95.90
56070;BME280;41944;52.078;-0.058;2023-02-12T03:15:37;103521.05;;;7.68;96.18
56070;BME280;41944;52.078;-0.058;2023-02-12T03:18:08;103516.74;;;7.76;95.90
56070;BME280;41944;52.078;-0.058;2023-02-12T03:20:42;103514.88;;;7.71;96.30
56070;BME280;41944;52.078;-0.058;2023-02-12T03:23:16;103518.87;;;7.67;96.63
56070;BME280;41944;52.078;-0.058;2023-02-12T03:25:49;103513.38;;;7.73;96.27
56070;BME280;41944;52.078;-0.058;2023-02-12T03:28:24;103509.21;;;7.82;95.74
56070;BME280;41944;52.078;-0.058;2023-02-12T03:30:58;103508.83;;;7.82;95.57
56070;BME280;41944;52.078;-0.058;2023-02-12T03:33:34;103509.95;;;7.76;95.88
56070;BME280;41944;52.078;-0.058;2023-02-12T03:36:09;103509.38;;;7.73;96.18
56070;BME280;41944;52.078;-0.058;2023-02-12T03:38:45;103509.00;;;7.73;96.14
56070;BME280;41944;52.078;-0.058;2023-02-12T03:41:18;103510.39;;;7.71;96.30
56070;BME280;41944;52.078;-0.058;2023-02-12T03:43:48;103511.32;;;7.67;96.80
56070;BME280;41944;52.078;-0.058;2023-02-12T03:46:21;103509.41;;;7.67;96.93
56070;BME280;41944;52.078;-0.058;2023-02-12T03:48:56;103508.27;;;7.70;96.79
56070;BME280;41944;52.078;-0.058;2023-02-12T03:51:29;103506.21;;;7.69;96.65
56070;BME280;41944;52.078;-0.058;2023-02-12T03:54:00;103504.36;;;7.68;96.78
56070;BME280;41944;52.078;-0.058;2023-02-12T03:56:32;103506.40;;;7.66;96.85
56070;BME280;41944;52.078;-0.058;2023-02-12T03:59:02;103508.01;;;7.60;97.77
56070;BME280;41944;52.078;-0.058;2023-02-12T04:01:31;103510.88;;;7.58;97.73
56070;BME280;41944;52.078;-0.058;2023-02-12T04:04:03;103512.21;;;7.61;97.61
56070;BME280;41944;52.078;-0.058;2023-02-12T04:06:30;103511.35;;;7.60;97.65
56070;BME280;41944;52.078;-0.058;2023-02-12T04:09:02;103514.40;;;7.62;97.79
56070;BME280;41944;52.078;-0.058;2023-02-12T04:11:35;103517.68;;;7.58;98.24
56070;BME280;41944;52.078;-0.058;2023-02-12T04:14:15;103518.64;;;7.60;97.93
56070;BME280;41944;52.078;-0.058;2023-02-12T04:16:47;103523.26;;;7.58;97.92
56070;BME280;41944;52.078;-0.058;2023-02-12T04:19:22;103525.20;;;7.56;97.88
56070;BME280;41944;52.078;-0.058;2023-02-12T04:22:01;103527.70;;;7.57;97.98
56070;BME280;41944;52.078;-0.058;2023-02-12T04:24:42;103530.33;;;7.52;98.43
56070;BME280;41944;52.078;-0.058;2023-02-12T04:27:14;103530.27;;;7.53;98.17
56070;BME280;41944;52.078;-0.058;2023-02-12T04:29:48;103526.60;;;7.57;98.29
56070;BME280;41944;52.078;-0.058;2023-02-12T04:32:19;103533.65;;;7.54;98.40
56070;BME280;41944;52.078;-0.058;2023-02-12T04:34:52;103534.67;;;7.56;98.17
56070;BME280;41944;52.078;-0.058;2023-02-12T04:37:22;103538.62;;;7.56;98.51
56070;BME280;41944;52.078;-0.058;2023-02-12T04:39:52;103535.33;;;7.55;98.85
56070;BME280;41944;52.078;-0.058;2023-02-12T04:42:20;103538.83;;;7.56;98.86
56070;BME280;41944;52.078;-0.058;2023-02-12T04:44:48;103540.35;;;7.53;99.00
56070;BME280;41944;52.078;-0.058;2023-02-12T04:47:15;103538.08;;;7.49;99.34
56070;BME280;41944;52.078;-0.058;2023-02-12T04:49:42;103535.78;;;7.50;99.34
56070;BME280;41944;52.078;-0.058;2023-02-12T04:52:09;103536.35;;;7.48;99.66
56070;BME280;41944;52.078;-0.058;2023-02-12T04:54:37;103536.70;;;7.46;99.96
56070;BME280;41944;52.078;-0.058;2023-02-12T04:57:05;103538.37;;;7.48;99.70
56070;BME280;41944;52.078;-0.058;2023-02-12T04:59:32;103536.19;;;7.47;99.35
56070;BME280;41944;52.078;-0.058;2023-02-12T05:01:59;103535.82;;;7.46;99.32
56070;BME280;41944;52.078;-0.058;2023-02-12T05:04:26;103533.43;;;7.45;99.46
56070;BME280;41944;52.078;-0.058;2023-02-12T05:06:53;103531.75;;;7.48;99.16
56070;BME280;41944;52.078;-0.058;2023-02-12T05:09:20;103533.95;;;7.47;99.39
56070;BME280;41944;52.078;-0.058;2023-02-12T05:11:48;103538.34;;;7.46;99.59
56070;BME280;41944;52.078;-0.058;2023-02-12T05:14:15;103537.93;;;7.49;98.77
56070;BME280;41944;52.078;-0.058;2023-02-12T05:16:42;103536.25;;;7.47;98.85
56070;BME280;41944;52.078;-0.058;2023-02-12T05:19:09;103535.68;;;7.49;98.59
56070;BME280;41944;52.078;-0.058;2023-02-12T05:21:37;103531.15;;;7.47;98.16
56070;BME280;41944;52.078;-0.058;2023-02-12T05:24:05;103528.10;;;7.51;98.40
56070;BME280;41944;52.078;-0.058;2023-02-12T05:26:33;103527.37;;;7.44;98.75
56070;BME280;41944;52.078;-0.058;2023-02-12T05:29:01;103523.49;;;7.42;98.68
56070;BME280;41944;52.078;-0.058;2023-02-12T05:31:28;103522.03;;;7.41;98.93
56070;BME280;41944;52.078;-0.058;2023-02-12T05:33:55;103516.79;;;7.45;99.16
56070;BME280;41944;52.078;-0.058;2023-02-12T05:36:23;103518.38;;;7.49;99.10
56070;BME280;41944;52.078;-0.058;2023-02-12T05:38:52;103518.68;;;7.52;98.57
56070;BME280;41944;52.078;-0.058;2023-02-12T05:41:21;103515.23;;;7.47;98.29
56070;BME280;41944;52.078;-0.058;2023-02-12T05:43:49;103513.16;;;7.51;97.87
56070;BME280;41944;52.078;-0.058;2023-02-12T05:46:16;103514.45;;;7.53;97.47
56070;BME280;41944;52.078;-0.058;2023-02-12T05:48:45;103514.79;;;7.52;97.76
56070;BME280;41944;52.078;-0.058;2023-02-12T05:51:15;103516.02;;;7.63;97.78
56070;BME280;41944;52.078;-0.058;2023-02-12T05:53:42;103511.12;;;7.52;97.86
56070;BME280;41944;52.078;-0.058;2023-02-12T05:56:11;103514.36;;;7.51;98.23
56070;BME280;41944;52.078;-0.058;2023-02-12T05:58:38;103514.86;;;7.46;98.82
56070;BME280;41944;52.078;-0.058;2023-02-12T06:01:11;103519.26;;;7.54;97.89
56070;BME280;41944;52.078;-0.058;2023-02-12T06:03:38;103519.85;;;7.55;97.13
56070;BME280;41944;52.078;-0.058;2023-02-12T06:06:05;103520.99;;;7.60;96.57
56070;BME280;41944;52.078;-0.058;2023-02-12T06:08:33;103523.70;;;7.53;96.90
56070;BME280;41944;52.078;-0.058;2023-02-12T06:11:03;103521.56;;;7.54;96.95
56070;BME280;41944;52.078;-0.058;2023-02-12T06:13:30;103528.96;;;7.53;96.50
56070;BME280;41944;52.078;-0.058;2023-02-12T06:15:58;103528.65;;;7.51;96.58
56070;BME280;41944;52.078;-0.058;2023-02-12T06:18:26;103524.78;;;7.50;96.92
56070;BME280;41944;52.078;-0.058;2023-02-12T06:20:53;103524.23;;;7.59;96.99
56070;BME280;41944;52.078;-0.058;2023-02-12T06:23:20;103523.71;;;7.52;97.25
56070;BME280;41944;52.078;-0.058;2023-02-12T06:25:47;103522.81;;;7.50;97.27
56070;BME280;41944;52.078;-0.058;2023-02-12T06:28:15;103520.18;;;7.45;97.50
56070;BME280;41944;52.078;-0.058;2023-02-12T06:30:42;103522.08;;;7.46;97.68
56070;BME280;41944;52.078;-0.058;2023-02-12T06:33:11;103521.03;;;7.47;97.72
56070;BME280;41944;52.078;-0.058;2023-02-12T06:35:38;103520.30;;;7.49;97.64
56070;BME280;41944;52.078;-0.058;2023-02-12T06:38:06;103519.47;;;7.59;97.01
56070;BME280;41944;52.078;-0.058;2023-02-12T06:40:33;103525.62;;;7.58;95.90
56070;BME280;41944;52.078;-0.058;2023-02-12T06:43:00;103526.57;;;7.65;95.21
56070;BME280;41944;52.078;-0.058;2023-02-12T06:45:27;103525.50;;;7.76;93.91
56070;BME280;41944;52.078;-0.058;2023-02-12T06:47:54;103526.40;;;7.70;93.37
56070;BME280;41944;52.078;-0.058;2023-02-12T06:50:21;103524.48;;;7.65;94.48
56070;BME280;41944;52.078;-0.058;2023-02-12T06:52:49;103524.19;;;7.85;93.61
56070;BME280;41944;52.078;-0.058;2023-02-12T06:55:16;103523.79;;;7.68;93.73
56070;BME280;41944;52.078;-0.058;2023-02-12T06:57:44;103525.58;;;7.61;94.22
56070;BME280;41944;52.078;-0.058;2023-02-12T07:00:12;103525.30;;;7.66;94.42
56070;BME280;41944;52.078;-0.058;2023-02-12T07:02:39;103529.26;;;7.59;94.79
56070;BME280;41944;52.078;-0.058;2023-02-12T07:05:07;103528.92;;;7.56;94.97
56070;BME280;41944;52.078;-0.058;2023-02-12T07:07:34;103525.35;;;7.57;94.88
56070;BME280;41944;52.078;-0.058;2023-02-12T07:10:01;103527.46;;;7.54;95.12
56070;BME280;41944;52.078;-0.058;2023-02-12T07:12:28;103528.66;;;7.54;95.91
56070;BME280;41944;52.078;-0.058;2023-02-12T07:14:56;103527.17;;;7.46;95.60
56070;BME280;41944;52.078;-0.058;2023-02-12T07:17:23;103529.23;;;7.53;95.14
56070;BME280;41944;52.078;-0.058;2023-02-12T07:19:50;103533.51;;;7.52;95.19
56070;BME280;41944;52.078;-0.058;2023-02-12T07:22:17;103534.61;;;7.51;95.08
56070;BME280;41944;52.078;-0.058;2023-02-12T07:24:44;103539.13;;;7.54;95.07
56070;BME280;41944;52.078;-0.058;2023-02-12T07:27:11;103537.51;;;7.57;95.26
56070;BME280;41944;52.078;-0.058;2023-02-12T07:29:39;103537.39;;;7.62;94.50
56070;BME280;41944;52.078;-0.058;2023-02-12T07:32:06;103540.98;;;7.59;94.09
56070;BME280;41944;52.078;-0.058;2023-02-12T07:34:33;103543.32;;;7.56;94.23
56070;BME280;41944;52.078;-0.058;2023-02-12T07:37:00;103540.35;;;7.61;94.50
56070;BME280;41944;52.078;-0.058;2023-02-12T07:39:27;103543.33;;;7.69;93.96
56070;BME280;41944;52.078;-0.058;2023-02-12T07:41:55;103539.88;;;7.73;93.61
56070;BME280;41944;52.078;-0.058;2023-02-12T07:44:22;103545.91;;;7.69;93.89
56070;BME280;41944;52.078;-0.058;2023-02-12T07:46:49;103547.19;;;7.72;93.41
56070;BME280;41944;52.078;-0.058;2023-02-12T07:49:18;103548.41;;;7.88;91.76
56070;BME280;41944;52.078;-0.058;2023-02-12T07:51:46;103546.21;;;7.88;90.53
56070;BME280;41944;52.078;-0.058;2023-02-12T07:54:14;103550.79;;;8.15;89.13
56070;BME280;41944;52.078;-0.058;2023-02-12T07:56:42;103551.44;;;8.19;87.78
56070;BME280;41944;52.078;-0.058;2023-02-12T07:59:12;103547.69;;;8.21;87.89
56070;BME280;41944;52.078;-0.058;2023-02-12T08:01:42;103546.74;;;8.37;87.08
56070;BME280;41944;52.078;-0.058;2023-02-12T08:04:14;103549.19;;;8.42;86.01
56070;BME280;41944;52.078;-0.058;2023-02-12T08:06:42;103552.23;;;8.41;85.62
56070;BME280;41944;52.078;-0.058;2023-02-12T08:09:11;103549.41;;;8.42;85.25
56070;BME280;41944;52.078;-0.058;2023-02-12T08:11:40;103553.73;;;8.36;85.51
56070;BME280;41944;52.078;-0.058;2023-02-12T08:14:10;103560.14;;;8.32;85.99
56070;BME280;41944;52.078;-0.058;2023-02-12T08:16:39;103558.36;;;8.52;85.61
56070;BME280;41944;52.078;-0.058;2023-02-12T08:19:07;103557.07;;;8.47;85.91
56070;BME280;41944;52.078;-0.058;2023-02-12T08:21:34;103560.30;;;8.36;86.24
56070;BME280;41944;52.078;-0.058;2023-02-12T08:24:02;103563.61;;;8.42;86.84
56070;BME280;41944;52.078;-0.058;2023-02-12T08:26:31;103560.59;;;8.35;86.74
56070;BME280;41944;52.078;-0.058;2023-02-12T08:29:00;103555.47;;;8.44;86.38
56070;BME280;41944;52.078;-0.058;2023-02-12T08:31:29;103556.52;;;8.40;86.15
56070;BME280;41944;52.078;-0.058;2023-02-12T08:33:57;103559.17;;;8.42;87.97
56070;BME280;41944;52.078;-0.058;2023-02-12T08:36:26;103559.51;;;8.26;88.92
56070;BME280;41944;52.078;-0.058;2023-02-12T08:38:57;103560.20;;;8.35;87.88
56070;BME280;41944;52.078;-0.058;2023-02-12T08:41:26;103563.82;;;8.28;88.38
56070;BME280;41944;52.078;-0.058;2023-02-12T08:43:56;103563.29;;;8.41;88.23
56070;BME280;41944;52.078;-0.058;2023-02-12T08:46:26;103559.29;;;8.42;87.86
56070;BME280;41944;52.078;-0.058;2023-02-12T08:48:56;103562.88;;;8.47;87.46
56070;BME280;41944;52.078;-0.058;2023-02-12T08:51:26;103561.44;;;8.59;86.57
56070;BME280;41944;52.078;-0.058;2023-02-12T08:53:55;103566.33;;;8.51;86.78
56070;BME280;41944;52.078;-0.058;2023-02-12T08:56:23;103567.68;;;8.41;88.62
56070;BME280;41944;52.078;-0.058;2023-02-12T08:58:51;103572.57;;;8.48;88.68
56070;BME280;41944;52.078;-0.058;2023-02-12T09:01:20;103569.36;;;8.57;87.28
56070;BME280;41944;52.078;-0.058;2023-02-12T09:03:48;103568.59;;;8.65;87.36
56070;BME280;41944;52.078;-0.058;2023-02-12T09:06:18;103566.34;;;8.58;87.43
56070;BME280;41944;52.078;-0.058;2023-02-12T09:08:45;103570.34;;;8.79;86.98
56070;BME280;41944;52.078;-0.058;2023-02-12T09:11:14;103569.14;;;8.78;86.65
56070;BME280;41944;52.078;-0.058;2023-02-12T09:13:43;103567.35;;;8.70;87.00
56070;BME280;41944;52.078;-0.058;2023-02-12T09:16:11;103564.92;;;8.81;87.11
56070;BME280;41944;52.078;-0.058;2023-02-12T09:18:39;103563.18;;;8.84;86.48
56070;BME280;41944;52.078;-0.058;2023-02-12T09:21:09;103561.06;;;8.76;86.07
56070;BME280;41944;52.078;-0.058;2023-02-12T09:23:37;103562.56;;;8.74;86.19
56070;BME280;41944;52.078;-0.058;2023-02-12T09:26:06;103559.98;;;8.82;85.80
56070;BME280;41944;52.078;-0.058;2023-02-12T09:28:34;103561.08;;;8.68;86.16
56070;BME280;41944;52.078;-0.058;2023-02-12T09:31:05;103562.66;;;8.88;85.33
56070;BME280;41944;52.078;-0.058;2023-02-12T09:33:32;103560.14;;;8.95;85.74
56070;BME280;41944;52.078;-0.058;2023-02-12T09:36:01;103555.09;;;9.17;84.10
56070;BME280;41944;52.078;-0.058;2023-02-12T09:38:28;103557.84;;;9.22;83.25
56070;BME280;41944;52.078;-0.058;2023-02-12T09:41:06;103558.46;;;9.16;83.06
56070;BME280;41944;52.078;-0.058;2023-02-12T09:43:43;103556.17;;;9.06;83.57
56070;BME280;41944;52.078;-0.058;2023-02-12T09:46:14;103556.60;;;9.15;83.82
56070;BME280;41944;52.078;-0.058;2023-02-12T09:48:55;103563.94;;;9.03;84.12
56070;BME280;41944;52.078;-0.058;2023-02-12T09:51:25;103566.01;;;9.17;84.54
56070;BME280;41944;52.078;-0.058;2023-02-12T09:54:02;103563.55;;;9.35;83.93
56070;BME280;41944;52.078;-0.058;2023-02-12T09:56:30;103561.59;;;9.51;82.19
56070;BME280;41944;52.078;-0.058;2023-02-12T09:59:00;103563.50;;;9.55;81.33
56070;BME280;41944;52.078;-0.058;2023-02-12T10:01:27;103560.07;;;9.50;81.68
56070;BME280;41944;52.078;-0.058;2023-02-12T10:03:55;103559.46;;;9.53;81.88
56070;BME280;41944;52.078;-0.058;2023-02-12T10:06:25;103562.98;;;9.53;81.93
56070;BME280;41944;52.078;-0.058;2023-02-12T10:09:00;103563.72;;;9.57;82.09
56070;BME280;41944;52.078;-0.058;2023-02-12T10:11:40;103561.82;;;9.64;81.05
56070;BME280;41944;52.078;-0.058;2023-02-12T10:14:20;103562.09;;;9.68;81.47
56070;BME280;41944;52.078;-0.058;2023-02-12T10:16:55;103563.59;;;9.69;81.62
56070;BME280;41944;52.078;-0.058;2023-02-12T10:19:40;103564.39;;;9.62;81.71
56070;BME280;41944;52.078;-0.058;2023-02-12T10:22:22;103564.57;;;9.69;81.56
56070;BME280;41944;52.078;-0.058;2023-02-12T10:25:00;103564.87;;;9.65;81.27
56070;BME280;41944;52.078;-0.058;2023-02-12T10:27:36;103569.39;;;9.48;82.44
56070;BME280;41944;52.078;-0.058;2023-02-12T10:30:13;103565.87;;;9.70;82.17
56070;BME280;41944;52.078;-0.058;2023-02-12T10:32:44;103565.32;;;9.57;82.37
56070;BME280;41944;52.078;-0.058;2023-02-12T10:35:14;103569.45;;;9.65;82.62
56070;BME280;41944;52.078;-0.058;2023-02-12T10:37:43;103573.07;;;9.56;83.28
56070;BME280;41944;52.078;-0.058;2023-02-12T10:40:18;103568.20;;;9.58;83.42
56070;BME280;41944;52.078;-0.058;2023-02-12T10:42:49;103571.68;;;9.71;82.53
56070;BME280;41944;52.078;-0.058;2023-02-12T10:45:19;103568.47;;;9.64;82.89
56070;BME280;41944;52.078;-0.058;2023-02-12T10:47:50;103566.17;;;9.77;82.94
56070;BME280;41944;52.078;-0.058;2023-02-12T10:50:36;103567.73;;;9.68;83.22
56070;BME280;41944;52.078;-0.058;2023-02-12T10:53:14;103572.43;;;9.86;83.33
56070;BME280;41944;52.078;-0.058;2023-02-12T10:55:42;103569.26;;;9.93;82.93
56070;BME280;41944;52.078;-0.058;2023-02-12T10:58:19;103563.89;;;9.92;83.30
56070;BME280;41944;52.078;-0.058;2023-02-12T11:00:55;103567.05;;;9.78;83.86
56070;BME280;41944;52.078;-0.058;2023-02-12T11:03:27;103566.18;;;10.01;81.82
56070;BME280;41944;52.078;-0.058;2023-02-12T11:05:55;103564.07;;;10.22;79.82
56070;BME280;41944;52.078;-0.058;2023-02-12T11:08:32;103566.70;;;10.27;78.49
56070;BME280;41944;52.078;-0.058;2023-02-12T11:11:07;103564.02;;;10.19;78.88
56070;BME280;41944;52.078;-0.058;2023-02-12T11:13:35;103561.81;;;10.48;77.56
56070;BME280;41944;52.078;-0.058;2023-02-12T11:16:04;103562.62;;;10.76;75.70
56070;BME280;41944;52.078;-0.058;2023-02-12T11:18:32;103553.62;;;10.97;74.16
56070;BME280;41944;52.078;-0.058;2023-02-12T11:21:01;103554.03;;;11.15;73.56
56070;BME280;41944;52.078;-0.058;2023-02-12T11:23:31;103557.51;;;11.27;72.65
56070;BME280;41944;52.078;-0.058;2023-02-12T11:26:00;103552.50;;;11.25;72.53
56070;BME280;41944;52.078;-0.058;2023-02-12T11:28:28;103545.95;;;11.00;72.80
56070;BME280;41944;52.078;-0.058;2023-02-12T11:30:57;103548.48;;;11.21;72.02
56070;BME280;41944;52.078;-0.058;2023-02-12T11:33:28;103547.10;;;11.31;71.15
56070;BME280;41944;52.078;-0.058;2023-02-12T11:35:58;103544.51;;;11.25;71.06
56070;BME280;41944;52.078;-0.058;2023-02-12T11:38:29;103543.31;;;11.23;71.86
56070;BME280;41944;52.078;-0.058;2023-02-12T11:41:03;103548.15;;;11.25;72.18
56070;BME280;41944;52.078;-0.058;2023-02-12T11:43:33;103544.97;;;11.23;72.60
56070;BME280;41944;52.078;-0.058;2023-02-12T11:46:01;103540.70;;;11.09;73.41
56070;BME280;41944;52.078;-0.058;2023-02-12T11:48:31;103537.70;;;11.04;73.90
56070;BME280;41944;52.078;-0.058;2023-02-12T11:51:02;103534.33;;;11.09;74.32
56070;BME280;41944;52.078;-0.058;2023-02-12T11:53:31;103529.84;;;11.04;74.70
56070;BME280;41944;52.078;-0.058;2023-02-12T11:56:02;103532.82;;;11.03;75.02
56070;BME280;41944;52.078;-0.058;2023-02-12T11:58:30;103526.84;;;10.94;76.35
56070;BME280;41944;52.078;-0.058;2023-02-12T12:01:03;103523.20;;;11.11;76.00
56070;BME280;41944;52.078;-0.058;2023-02-12T12:03:36;103521.94;;;11.13;76.35
56070;BME280;41944;52.078;-0.058;2023-02-12T12:06:12;103523.97;;;11.32;74.56
56070;BME280;41944;52.078;-0.058;2023-02-12T12:08:47;103518.76;;;11.35;73.96
56070;BME280;41944;52.078;-0.058;2023-02-12T12:11:22;103518.71;;;11.26;74.31
56070;BME280;41944;52.078;-0.058;2023-02-12T12:14:04;103524.61;;;11.30;74.86
56070;BME280;41944;52.078;-0.058;2023-02-12T12:16:39;103522.41;;;11.32;75.23
56070;BME280;41944;52.078;-0.058;2023-02-12T12:19:13;103520.51;;;11.21;76.02
56070;BME280;41944;52.078;-0.058;2023-02-12T12:21:47;103522.40;;;11.30;76.16
56070;BME280;41944;52.078;-0.058;2023-02-12T12:24:20;103521.67;;;11.17;76.89
56070;BME280;41944;52.078;-0.058;2023-02-12T12:26:54;103519.59;;;10.98;78.45
56070;BME280;41944;52.078;-0.058;2023-02-12T12:29:28;103519.31;;;11.04;78.54
56070;BME280;41944;52.078;-0.058;2023-02-12T12:32:00;103514.37;;;11.10;79.21
56070;BME280;41944;52.078;-0.058;2023-02-12T12:34:28;103518.22;;;11.10;79.37
56070;BME280;41944;52.078;-0.058;2023-02-12T12:37:09;103515.93;;;11.01;79.51
56070;BME280;41944;52.078;-0.058;2023-02-12T12:39:47;103511.25;;;10.95;79.76
56070;BME280;41944;52.078;-0.058;2023-02-12T12:42:37;103513.59;;;11.12;78.42
56070;BME280;41944;52.078;-0.058;2023-02-12T12:45:24;103510.16;;;11.11;78.37
56070;BME280;41944;52.078;-0.058;2023-02-12T12:48:06;103503.85;;;11.12;78.25
56070;BME280;41944;52.078;-0.058;2023-02-12T12:50:51;103498.52;;;10.87;79.64
56070;BME280;41944;52.078;-0.058;2023-02-12T12:53:34;103493.58;;;10.95;79.83
56070;BME280;41944;52.078;-0.058;2023-02-12T12:56:15;103487.26;;;10.82;80.77
56070;BME280;41944;52.078;-0.058;2023-02-12T12:58:59;103490.41;;;11.00;79.21
56070;BME280;41944;52.078;-0.058;2023-02-12T13:01:43;103488.44;;;10.94;80.00
56070;BME280;41944;52.078;-0.058;2023-02-12T13:04:35;103485.06;;;10.75;81.18
56070;BME280;41944;52.078;-0.058;2023-02-12T13:07:16;103484.78;;;10.74;81.83